Time,TemperatureF,DewpointF,PressureIn,WindDirection,WindDirectionDegrees,WindSpeedMPH,WindSpeedGustMPH,Humidity,HourlyPrecipIn,Conditions,Clouds,dailyrainin,SoftwareType,DateUTC
2013-02-10 00:00:00,36.0,30.8,30.32,North,360,0.0,0.0,81,0.00,,---,0.00,VWS V14.00,2013-02-10 05:00:00,
2013-02-10 00:02:00,36.0,31.0,30.32,North,360,0.0,0.0,82,0.00,,---,0.00,VWS V14.00,2013-02-10 05:02:00,
2013-02-10 00:07:00,36.1,30.8,30.32,North,360,0.0,0.0,81,0.00,,---,0.00,VWS V14.00,2013-02-10 05:07:00,
2013-02-10 00:10:00,36.2,30.6,30.32,North,360,0.0,0.0,80,0.00,,---,0.00,VWS V14.00,2013-02-10 05:10:00,
2013-02-10 00:15:00,36.3,30.1,30.32,North,360,0.0,0.0,78,0.00,,---,0.00,VWS V14.00,2013-02-10 05:15:00,
2013-02-10 00:20:00,36.4,30.8,30.32,North,360,0.0,0.0,80,0.00,,---,0.00,VWS V14.00,2013-02-10 05:20:00,
2013-02-10 00:25:00,36.5,30.6,30.32,North,360,0.0,0.0,79,0.00,,---,0.00,VWS V14.00,2013-02-10 05:25:00,
2013-02-10 00:30:00,36.7,32.0,30.32,North,360,0.0,0.0,83,0.00,,---,0.00,VWS V14.00,2013-02-10 05:30:00,
2013-02-10 00:35:00,36.9,30.4,30.32,North,360,0.0,0.0,77,0.00,,---,0.00,VWS V14.00,2013-02-10 05:35:00,
2013-02-10 00:40:00,37.0,30.8,30.32,North,360,0.0,0.0,78,0.00,,---,0.00,VWS V14.00,2013-02-10 05:40:00,
2013-02-10 00:45:00,37.1,30.6,30.32,North,360,0.0,0.0,77,0.00,,---,0.00,VWS V14.00,2013-02-10 05:45:00,
2013-02-10 00:50:00,37.3,31.4,30.32,North,360,0.0,0.0,79,0.00,,---,0.00,VWS V14.00,2013-02-10 05:50:00,
2013-02-10 00:55:00,37.4,31.5,30.32,North,360,0.0,0.0,79,0.00,,---,0.00,VWS V14.00,2013-02-10 05:55:00,
2013-02-10 01:00:00,37.4,31.5,30.32,North,360,0.0,0.0,79,0.00,,---,0.00,VWS V14.00,2013-02-10 06:00:00,
2013-02-10 01:05:00,37.5,31.6,30.32,North,360,0.0,0.0,79,0.00,,---,0.00,VWS V14.00,2013-02-10 06:05:00,
2013-02-10 01:10:00,37.5,31.6,30.32,North,360,0.0,0.0,79,0.00,,---,0.00,VWS V14.00,2013-02-10 06:10:00,
2013-02-10 01:15:00,37.7,32.1,30.32,North,360,0.0,0.0,80,0.00,,---,0.00,VWS V14.00,2013-02-10 06:15:00,
2013-02-10 01:20:00,37.7,31.8,30.32,North,360,0.0,0.0,79,0.00,,---,0.00,VWS V14.00,2013-02-10 06:20:00,
2013-02-10 01:25:00,37.7,31.8,30.31,North,360,0.0,0.0,79,0.00,,---,0.00,VWS V14.00,2013-02-10 06:25:00,
2013-02-10 01:30:00,37.7,31.8,30.32,North,360,0.0,0.0,79,0.00,,---,0.00,VWS V14.00,2013-02-10 06:30:00,
2013-02-10 01:35:00,37.7,31.8,30.32,North,360,0.0,0.0,79,0.00,,---,0.00,VWS V14.00,2013-02-10 06:35:00,
2013-02-10 01:40:00,37.7,32.1,30.32,North,360,0.0,0.0,80,0.00,,---,0.00,VWS V14.00,2013-02-10 06:40:00,
2013-02-10 01:45:00,37.7,31.5,30.32,North,360,0.0,0.0,78,0.00,,---,0.00,VWS V14.00,2013-02-10 06:45:00,
2013-02-10 01:50:00,37.8,32.2,30.32,North,360,0.0,0.0,80,0.00,,---,0.00,VWS V14.00,2013-02-10 06:50:00,
2013-02-10 01:55:00,37.9,31.7,30.33,North,360,0.0,0.0,78,0.00,,---,0.00,VWS V14.00,2013-02-10 06:55:00,
2013-02-10 02:00:00,38.0,30.5,30.33,North,360,0.0,0.0,74,0.00,,---,0.00,VWS V14.00,2013-02-10 07:00:00,
2013-02-10 02:05:00,38.3,31.1,30.33,North,360,0.0,0.0,75,0.00,,---,0.00,VWS V14.00,2013-02-10 07:05:00,
2013-02-10 02:10:00,38.6,31.0,30.33,North,360,0.0,0.0,74,0.00,,---,0.00,VWS V14.00,2013-02-10 07:10:00,
2013-02-10 02:16:00,38.8,31.2,30.32,North,360,0.0,0.0,74,0.00,,---,0.00,VWS V14.00,2013-02-10 07:16:00,
2013-02-10 02:21:00,38.9,31.3,30.32,North,360,0.0,0.0,74,0.00,,---,0.00,VWS V14.00,2013-02-10 07:21:00,
2013-02-10 02:26:00,38.9,32.3,30.32,North,360,0.0,0.0,77,0.00,,---,0.00,VWS V14.00,2013-02-10 07:26:00,
2013-02-10 02:31:00,38.9,33.0,30.33,North,360,0.0,0.0,79,0.00,,---,0.00,VWS V14.00,2013-02-10 07:31:00,
2013-02-10 02:36:00,38.7,31.8,30.32,North,360,0.0,0.0,76,0.00,,---,0.00,VWS V14.00,2013-02-10 07:36:00,
2013-02-10 02:41:00,38.9,30.3,30.33,North,360,0.0,0.0,71,0.00,,---,0.00,VWS V14.00,2013-02-10 07:41:00,
2013-02-10 02:46:00,39.2,32.6,30.32,North,360,0.0,0.0,77,0.00,,---,0.00,VWS V14.00,2013-02-10 07:46:00,
2013-02-10 02:51:00,39.4,31.1,30.33,North,360,0.0,0.0,72,0.00,,---,0.00,VWS V14.00,2013-02-10 07:51:00,
2013-02-10 02:56:00,39.6,31.3,30.32,North,360,0.0,0.0,72,0.00,,---,0.00,VWS V14.00,2013-02-10 07:56:00,
2013-02-10 03:01:00,39.7,31.8,30.33,North,360,0.0,0.0,73,0.00,,---,0.00,VWS V14.00,2013-02-10 08:01:00,
2013-02-10 03:06:00,39.8,31.5,30.33,North,360,0.0,0.0,72,0.00,,---,0.00,VWS V14.00,2013-02-10 08:06:00,
2013-02-10 03:11:00,40.0,31.0,30.33,North,360,0.0,0.0,70,0.00,,---,0.00,VWS V14.00,2013-02-10 08:11:00,
2013-02-10 03:16:00,40.2,30.9,30.33,North,360,0.0,0.0,69,0.00,,---,0.00,VWS V14.00,2013-02-10 08:16:00,
2013-02-10 03:21:00,40.5,31.1,30.33,North,360,0.0,0.0,69,0.00,,---,0.00,VWS V14.00,2013-02-10 08:21:00,
2013-02-10 03:26:00,40.6,30.5,30.33,North,360,0.0,0.0,67,0.00,,---,0.00,VWS V14.00,2013-02-10 08:26:00,
2013-02-10 03:31:00,40.7,30.2,30.33,North,360,0.0,0.0,66,0.00,,---,0.00,VWS V14.00,2013-02-10 08:31:00,
2013-02-10 03:36:00,40.9,30.8,30.32,North,360,0.0,0.0,67,0.00,,---,0.00,VWS V14.00,2013-02-10 08:36:00,
2013-02-10 03:41:00,41.1,31.4,30.32,North,360,0.0,0.0,68,0.00,,---,0.00,VWS V14.00,2013-02-10 08:41:00,
2013-02-10 03:46:00,41.1,31.4,30.32,North,360,0.0,0.0,68,0.00,,---,0.00,VWS V14.00,2013-02-10 08:46:00,
2013-02-10 03:51:00,41.1,32.1,30.32,North,360,0.0,0.0,70,0.00,,---,0.00,VWS V14.00,2013-02-10 08:51:00,
2013-02-10 03:56:00,41.0,31.3,30.32,North,360,0.0,0.0,68,0.00,,---,0.00,VWS V14.00,2013-02-10 08:56:00,
2013-02-10 04:01:00,41.0,31.3,30.32,North,360,0.0,0.0,68,0.00,,---,0.00,VWS V14.00,2013-02-10 09:01:00,
2013-02-10 04:06:00,41.0,30.9,30.32,North,360,0.0,0.0,67,0.00,,---,0.00,VWS V14.00,2013-02-10 09:06:00,
2013-02-10 04:11:00,41.1,31.0,30.32,North,360,0.0,0.0,67,0.00,,---,0.00,VWS V14.00,2013-02-10 09:11:00,
2013-02-10 04:16:00,41.3,30.4,30.33,North,360,0.0,0.0,65,0.00,,---,0.00,VWS V14.00,2013-02-10 09:16:00,
2013-02-10 04:21:00,41.5,30.2,30.32,North,360,0.0,0.0,64,0.00,,---,0.00,VWS V14.00,2013-02-10 09:21:00,
2013-02-10 04:26:00,41.7,30.8,30.32,North,360,0.0,0.0,65,0.00,,---,0.00,VWS V14.00,2013-02-10 09:26:00,
2013-02-10 04:31:00,41.9,29.9,30.33,North,360,0.0,0.0,62,0.00,,---,0.00,VWS V14.00,2013-02-10 09:31:00,
2013-02-10 04:36:00,42.0,29.5,30.33,North,360,0.0,0.0,61,0.00,,---,0.00,VWS V14.00,2013-02-10 09:36:00,
2013-02-10 04:41:00,42.2,29.3,30.32,North,360,0.0,0.0,60,0.00,,---,0.00,VWS V14.00,2013-02-10 09:41:00,
2013-02-10 04:46:00,42.3,29.4,30.32,North,360,0.0,0.0,60,0.00,,---,0.00,VWS V14.00,2013-02-10 09:46:00,
2013-02-10 04:51:00,42.5,29.6,30.32,North,360,0.0,0.0,60,0.00,,---,0.00,VWS V14.00,2013-02-10 09:51:00,
2013-02-10 04:56:00,42.5,30.0,30.32,North,360,0.0,0.0,61,0.00,,---,0.00,VWS V14.00,2013-02-10 09:56:00,
2013-02-10 05:02:00,42.5,30.0,30.32,North,360,0.0,0.0,61,0.00,,---,0.00,VWS V14.00,2013-02-10 10:02:00,
2013-02-10 05:07:00,42.3,30.6,30.32,North,360,0.0,0.0,63,0.00,,---,0.00,VWS V14.00,2013-02-10 10:07:00,
2013-02-10 05:12:00,42.2,30.9,30.32,North,360,0.0,0.0,64,0.00,,---,0.00,VWS V14.00,2013-02-10 10:12:00,
2013-02-10 05:17:00,42.0,31.1,30.32,North,360,0.0,0.0,65,0.00,,---,0.00,VWS V14.00,2013-02-10 10:17:00,
2013-02-10 05:22:00,41.8,31.3,30.31,North,360,0.0,0.0,66,0.00,,---,0.00,VWS V14.00,2013-02-10 10:22:00,
2013-02-10 05:27:00,41.6,32.6,30.31,North,360,0.0,0.0,70,0.00,,---,0.00,VWS V14.00,2013-02-10 10:27:00,
2013-02-10 05:32:00,41.3,33.3,30.32,North,360,0.0,0.0,73,0.00,,---,0.00,VWS V14.00,2013-02-10 10:32:00,
2013-02-10 05:37:00,40.9,32.2,30.32,North,360,0.0,0.0,71,0.00,,---,0.00,VWS V14.00,2013-02-10 10:37:00,
2013-02-10 05:42:00,40.5,31.5,30.32,North,360,0.0,0.0,70,0.00,,---,0.00,VWS V14.00,2013-02-10 10:42:00,
2013-02-10 05:47:00,40.2,32.2,30.32,North,360,0.0,0.0,73,0.00,,---,0.00,VWS V14.00,2013-02-10 10:47:00,
2013-02-10 05:52:00,39.9,31.3,30.32,North,360,0.0,0.0,71,0.00,,---,0.00,VWS V14.00,2013-02-10 10:52:00,
2013-02-10 05:57:00,39.6,31.0,30.32,North,360,0.0,0.0,71,0.00,,---,0.00,VWS V14.00,2013-02-10 10:57:00,
2013-02-10 06:02:00,39.4,31.5,30.31,North,360,0.0,0.0,73,0.00,,---,0.00,VWS V14.00,2013-02-10 11:02:00,
2013-02-10 06:07:00,39.2,31.3,30.32,North,360,0.0,0.0,73,0.00,,---,0.00,VWS V14.00,2013-02-10 11:07:00,
2013-02-10 06:12:00,39.0,30.8,30.33,North,360,0.0,0.0,72,0.00,,---,0.00,VWS V14.00,2013-02-10 11:12:00,
2013-02-10 06:17:00,38.8,30.6,30.32,North,360,0.0,0.0,72,0.00,,---,0.00,VWS V14.00,2013-02-10 11:17:00,
2013-02-10 06:22:00,38.5,31.0,30.33,North,360,0.0,0.0,74,0.00,,---,0.00,VWS V14.00,2013-02-10 11:22:00,
2013-02-10 06:27:00,38.2,30.0,30.33,North,360,0.0,0.0,72,0.00,,---,0.00,VWS V14.00,2013-02-10 11:27:00,
2013-02-10 06:32:00,38.0,29.1,30.33,North,360,0.0,0.0,70,0.00,,---,0.00,VWS V14.00,2013-02-10 11:32:00,
2013-02-10 06:37:00,38.0,29.5,30.34,North,360,0.0,0.0,71,0.00,,---,0.00,VWS V14.00,2013-02-10 11:37:00,
2013-02-10 06:42:00,37.8,29.6,30.34,North,360,0.0,0.0,72,0.00,,---,0.00,VWS V14.00,2013-02-10 11:42:00,
2013-02-10 06:47:00,37.7,29.5,30.34,North,360,0.0,0.0,72,0.00,,---,0.00,VWS V14.00,2013-02-10 11:47:00,
2013-02-10 06:52:00,37.6,29.4,30.34,North,360,0.0,0.0,72,0.00,,---,0.00,VWS V14.00,2013-02-10 11:52:00,
2013-02-10 06:57:00,37.4,29.2,30.34,North,360,0.0,0.0,72,0.00,,---,0.00,VWS V14.00,2013-02-10 11:57:00,
2013-02-10 07:02:00,37.4,28.9,30.33,North,360,0.0,0.0,71,0.00,,---,0.00,VWS V14.00,2013-02-10 12:02:00,
2013-02-10 07:07:00,37.4,28.9,30.33,North,360,0.0,0.0,71,0.00,,---,0.00,VWS V14.00,2013-02-10 12:07:00,
2013-02-10 07:12:00,37.5,28.6,30.33,North,360,0.0,0.0,70,0.00,,---,0.00,VWS V14.00,2013-02-10 12:12:00,
2013-02-10 07:17:00,37.7,29.5,30.33,North,360,0.0,0.0,72,0.00,,---,0.00,VWS V14.00,2013-02-10 12:17:00,
2013-02-10 07:22:00,37.8,29.9,30.33,North,360,0.0,0.0,73,0.00,,---,0.00,VWS V14.00,2013-02-10 12:22:00,
2013-02-10 07:27:00,37.7,30.2,30.33,North,360,0.0,0.0,74,0.00,,---,0.00,VWS V14.00,2013-02-10 12:27:00,
2013-02-10 07:32:00,37.5,30.0,30.33,North,360,0.0,0.0,74,0.00,,---,0.00,VWS V14.00,2013-02-10 12:32:00,
2013-02-10 07:38:00,37.3,29.5,30.33,North,360,0.0,0.0,73,0.00,,---,0.00,VWS V14.00,2013-02-10 12:38:00,
2013-02-10 07:43:00,37.2,29.4,30.34,North,360,0.0,0.0,73,0.00,,---,0.00,VWS V14.00,2013-02-10 12:43:00,
2013-02-10 07:48:00,37.1,29.3,30.33,North,360,0.0,0.0,73,0.00,,---,0.00,VWS V14.00,2013-02-10 12:48:00,
2013-02-10 07:53:00,37.1,29.3,30.33,North,360,0.0,0.0,73,0.00,,---,0.00,VWS V14.00,2013-02-10 12:53:00,
2013-02-10 07:58:00,37.2,29.0,30.33,North,360,0.0,0.0,72,0.00,,---,0.00,VWS V14.00,2013-02-10 12:58:00,
2013-02-10 08:03:00,37.4,29.5,30.33,North,360,0.0,0.0,73,0.00,,---,0.00,VWS V14.00,2013-02-10 13:03:00,
2013-02-10 08:08:00,37.5,30.3,30.33,North,360,0.0,0.0,75,0.00,,---,0.00,VWS V14.00,2013-02-10 13:08:00,
2013-02-10 08:13:00,37.5,29.6,30.33,North,360,0.0,0.0,73,0.00,,---,0.00,VWS V14.00,2013-02-10 13:13:00,
2013-02-10 08:18:00,37.6,29.7,30.33,North,360,0.0,0.0,73,0.00,,---,0.00,VWS V14.00,2013-02-10 13:18:00,
2013-02-10 08:23:00,37.7,29.8,30.33,North,360,0.0,0.0,73,0.00,,---,0.00,VWS V14.00,2013-02-10 13:23:00,
2013-02-10 08:28:00,38.0,29.5,30.33,North,360,0.0,0.0,71,0.00,,---,0.00,VWS V14.00,2013-02-10 13:28:00,
2013-02-10 08:33:00,38.3,29.7,30.33,North,360,0.0,0.0,71,0.00,,---,0.00,VWS V14.00,2013-02-10 13:33:00,
2013-02-10 08:38:00,38.8,29.9,30.34,North,360,0.0,0.0,70,0.00,,---,0.00,VWS V14.00,2013-02-10 13:38:00,
2013-02-10 08:43:00,39.4,30.8,30.34,North,360,0.0,0.0,71,0.00,,---,0.00,VWS V14.00,2013-02-10 13:43:00,
2013-02-10 08:48:00,39.9,30.6,30.34,North,360,0.0,0.0,69,0.00,,---,0.00,VWS V14.00,2013-02-10 13:48:00,
2013-02-10 08:53:00,40.5,30.8,30.35,North,360,0.0,0.0,68,0.00,,---,0.00,VWS V14.00,2013-02-10 13:53:00,
2013-02-10 08:58:00,41.1,30.6,30.36,North,360,0.0,0.0,66,0.00,,---,0.00,VWS V14.00,2013-02-10 13:58:00,
2013-02-10 09:03:00,41.9,31.0,30.37,North,360,0.0,0.0,65,0.00,,---,0.00,VWS V14.00,2013-02-10 14:03:00,
2013-02-10 09:08:00,42.6,31.3,30.36,North,360,0.0,0.0,64,0.00,,---,0.00,VWS V14.00,2013-02-10 14:08:00,
2013-02-10 09:13:00,43.2,31.1,30.36,North,360,0.0,0.0,62,0.00,,---,0.00,VWS V14.00,2013-02-10 14:13:00,
2013-02-10 09:18:00,43.5,31.4,30.36,North,360,0.0,0.0,62,0.00,,---,0.00,VWS V14.00,2013-02-10 14:18:00,
2013-02-10 09:23:00,43.8,31.6,30.36,North,360,0.0,0.0,62,0.00,,---,0.00,VWS V14.00,2013-02-10 14:23:00,
2013-02-10 09:28:00,44.3,31.3,30.36,North,360,0.0,0.0,60,0.00,,---,0.00,VWS V14.00,2013-02-10 14:28:00,
2013-02-10 09:33:00,44.7,31.7,30.37,North,360,0.0,0.0,60,0.00,,---,0.00,VWS V14.00,2013-02-10 14:33:00,
2013-02-10 09:38:00,45.1,31.2,30.36,North,360,0.0,0.0,58,0.00,,---,0.00,VWS V14.00,2013-02-10 14:38:00,
2013-02-10 09:43:00,45.5,31.2,30.36,North,360,0.0,0.0,57,0.00,,---,0.00,VWS V14.00,2013-02-10 14:43:00,
2013-02-10 09:49:00,45.8,31.5,30.36,North,360,0.0,0.0,57,0.00,,---,0.00,VWS V14.00,2013-02-10 14:49:00,
2013-02-10 09:54:00,46.1,31.7,30.36,North,360,0.0,0.0,57,0.00,,---,0.00,VWS V14.00,2013-02-10 14:54:00,
2013-02-10 09:59:00,46.6,31.8,30.35,North,360,0.0,0.0,56,0.00,,---,0.00,VWS V14.00,2013-02-10 14:59:00,
2013-02-10 10:04:00,47.1,32.2,30.35,North,360,0.0,0.0,56,0.00,,---,0.00,VWS V14.00,2013-02-10 15:04:00,
2013-02-10 10:09:00,47.5,31.7,30.35,North,360,0.0,0.0,54,0.00,,---,0.00,VWS V14.00,2013-02-10 15:09:00,
2013-02-10 10:14:00,47.6,31.3,30.35,North,360,0.0,0.0,53,0.00,,---,0.00,VWS V14.00,2013-02-10 15:14:00,
2013-02-10 10:19:00,47.6,31.3,30.35,North,360,0.0,0.0,53,0.00,,---,0.00,VWS V14.00,2013-02-10 15:19:00,
2013-02-10 10:24:00,47.8,31.5,30.36,North,360,0.0,0.0,53,0.00,,---,0.00,VWS V14.00,2013-02-10 15:24:00,
2013-02-10 10:29:00,47.9,31.1,30.36,North,360,0.0,0.0,52,0.00,,---,0.00,VWS V14.00,2013-02-10 15:29:00,
2013-02-10 10:34:00,48.1,30.8,30.35,North,360,0.0,0.0,51,0.00,,---,0.00,VWS V14.00,2013-02-10 15:34:00,
2013-02-10 10:39:00,48.2,30.9,30.35,North,360,0.0,0.0,51,0.00,,---,0.00,VWS V14.00,2013-02-10 15:39:00,
2013-02-10 10:44:00,48.3,31.5,30.35,North,360,0.0,0.0,52,0.00,,---,0.00,VWS V14.00,2013-02-10 15:44:00,
2013-02-10 10:49:00,48.4,31.1,30.34,North,360,0.0,0.0,51,0.00,,---,0.00,VWS V14.00,2013-02-10 15:49:00,
2013-02-10 10:54:00,48.3,31.0,30.34,North,360,0.0,0.0,51,0.00,,---,0.00,VWS V14.00,2013-02-10 15:54:00,
2013-02-10 10:59:00,48.3,30.5,30.34,North,360,0.0,0.0,50,0.00,,---,0.00,VWS V14.00,2013-02-10 15:59:00,
2013-02-10 11:04:00,48.3,30.5,30.33,North,360,0.0,0.0,50,0.00,,---,0.00,VWS V14.00,2013-02-10 16:04:00,
2013-02-10 11:09:00,48.3,30.5,30.33,North,360,0.0,0.0,50,0.00,,---,0.00,VWS V14.00,2013-02-10 16:09:00,
2013-02-10 11:14:00,48.3,30.0,30.33,North,360,0.0,0.0,49,0.00,,---,0.00,VWS V14.00,2013-02-10 16:14:00,
2013-02-10 11:19:00,48.3,30.5,30.33,North,360,0.0,0.0,50,0.00,,---,0.00,VWS V14.00,2013-02-10 16:19:00,
2013-02-10 11:24:00,48.3,30.0,30.34,North,360,0.0,0.0,49,0.00,,---,0.00,VWS V14.00,2013-02-10 16:24:00,
2013-02-10 11:29:00,48.3,30.5,30.34,North,360,0.0,0.0,50,0.00,,---,0.00,VWS V14.00,2013-02-10 16:29:00,
2013-02-10 11:34:00,48.3,30.0,30.34,North,360,0.0,0.0,49,0.00,,---,0.00,VWS V14.00,2013-02-10 16:34:00,
2013-02-10 11:39:00,48.5,30.2,30.33,North,360,0.0,0.0,49,0.00,,---,0.00,VWS V14.00,2013-02-10 16:39:00,
2013-02-10 11:45:00,48.6,29.8,30.32,North,360,0.0,0.0,48,0.00,,---,0.00,VWS V14.00,2013-02-10 16:45:00,
2013-02-10 11:50:00,48.8,30.0,30.31,North,360,0.0,0.0,48,0.00,,---,0.00,VWS V14.00,2013-02-10 16:50:00,
2013-02-10 11:55:00,48.9,30.1,30.30,North,360,0.0,0.0,48,0.00,,---,0.00,VWS V14.00,2013-02-10 16:55:00,
2013-02-10 12:00:00,49.1,29.8,30.29,North,360,0.0,0.0,47,0.00,,---,0.00,VWS V14.00,2013-02-10 17:00:00,
2013-02-10 12:05:00,49.3,30.5,30.28,North,360,0.0,0.0,48,0.00,,---,0.00,VWS V14.00,2013-02-10 17:05:00,
2013-02-10 12:10:00,49.4,30.5,30.27,North,360,0.0,0.0,48,0.00,,---,0.00,VWS V14.00,2013-02-10 17:10:00,
2013-02-10 12:15:00,49.5,31.1,30.26,North,360,0.0,0.0,49,0.00,,---,0.00,VWS V14.00,2013-02-10 17:15:00,
2013-02-10 12:20:00,49.6,31.2,30.26,North,360,0.0,0.0,49,0.00,,---,0.00,VWS V14.00,2013-02-10 17:20:00,
2013-02-10 12:25:00,49.7,31.3,30.26,North,360,0.0,0.0,49,0.00,,---,0.00,VWS V14.00,2013-02-10 17:25:00,
2013-02-10 12:30:00,49.9,32.5,30.26,North,360,0.0,0.0,51,0.00,,---,0.00,VWS V14.00,2013-02-10 17:30:00,
2013-02-10 12:35:00,50.2,33.3,30.25,North,360,0.0,0.0,52,0.00,,---,0.00,VWS V14.00,2013-02-10 17:35:00,
2013-02-10 12:40:00,50.5,34.5,30.26,North,360,0.0,0.0,54,0.00,,---,0.00,VWS V14.00,2013-02-10 17:40:00,
2013-02-10 12:45:00,50.9,34.9,30.26,North,360,0.0,0.0,54,0.00,,---,0.00,VWS V14.00,2013-02-10 17:45:00,
2013-02-10 12:50:00,51.0,35.9,30.26,North,360,0.0,0.0,56,0.00,,---,0.00,VWS V14.00,2013-02-10 17:50:00,
2013-02-10 12:55:00,51.2,36.5,30.25,North,360,0.0,0.0,57,0.00,,---,0.00,VWS V14.00,2013-02-10 17:55:00,
2013-02-10 13:00:00,51.4,36.7,30.25,North,360,0.0,0.0,57,0.00,,---,0.00,VWS V14.00,2013-02-10 18:00:00,
2013-02-10 13:05:00,51.5,37.2,30.25,North,360,0.0,0.0,58,0.00,,---,0.00,VWS V14.00,2013-02-10 18:05:00,
2013-02-10 13:10:00,51.5,37.2,30.25,North,360,0.0,0.0,58,0.00,,---,0.00,VWS V14.00,2013-02-10 18:10:00,
2013-02-10 13:15:00,51.6,37.8,30.25,North,360,0.0,0.0,59,0.00,,---,0.00,VWS V14.00,2013-02-10 18:15:00,
2013-02-10 13:20:00,51.5,37.7,30.25,North,360,0.0,0.0,59,0.00,,---,0.00,VWS V14.00,2013-02-10 18:20:00,
2013-02-10 13:25:00,51.4,37.6,30.24,North,360,0.0,0.0,59,0.00,,---,0.00,VWS V14.00,2013-02-10 18:25:00,
2013-02-10 13:31:00,51.4,38.0,30.22,North,360,0.0,0.0,60,0.00,,---,0.00,VWS V14.00,2013-02-10 18:31:00,
2013-02-10 13:36:00,51.4,38.4,30.23,North,360,0.0,0.0,61,0.00,,---,0.00,VWS V14.00,2013-02-10 18:36:00,
2013-02-10 13:41:00,51.4,38.8,30.23,North,360,0.0,0.0,62,0.00,,---,0.00,VWS V14.00,2013-02-10 18:41:00,
2013-02-10 13:46:00,51.5,38.9,30.22,North,360,0.0,0.0,62,0.00,,---,0.00,VWS V14.00,2013-02-10 18:46:00,
2013-02-10 13:51:00,51.6,39.0,30.22,North,360,0.0,0.0,62,0.00,,---,0.00,VWS V14.00,2013-02-10 18:51:00,
2013-02-10 13:56:00,51.7,39.1,30.22,North,360,0.0,0.0,62,0.00,,---,0.00,VWS V14.00,2013-02-10 18:56:00,
2013-02-10 14:01:00,51.7,39.5,30.21,North,360,0.0,0.0,63,0.00,,---,0.00,VWS V14.00,2013-02-10 19:01:00,
2013-02-10 14:06:00,51.7,39.5,30.21,North,360,0.0,0.0,63,0.00,,---,0.00,VWS V14.00,2013-02-10 19:06:00,
2013-02-10 14:11:00,51.7,39.5,30.21,North,360,0.0,0.0,63,0.00,,---,0.00,VWS V14.00,2013-02-10 19:11:00,
2013-02-10 14:16:00,51.7,39.9,30.21,North,360,0.0,0.0,64,0.00,,---,0.00,VWS V14.00,2013-02-10 19:16:00,
2013-02-10 14:21:00,51.6,39.8,30.20,North,360,0.0,0.0,64,0.00,,---,0.00,VWS V14.00,2013-02-10 19:21:00,
2013-02-10 14:26:00,51.7,39.9,30.21,North,360,0.0,0.0,64,0.00,,---,0.00,VWS V14.00,2013-02-10 19:26:00,
2013-02-10 14:31:00,51.7,40.3,30.20,North,360,0.0,0.0,65,0.00,,---,0.00,VWS V14.00,2013-02-10 19:31:00,
2013-02-10 14:36:00,51.7,40.3,30.20,North,360,0.0,0.0,65,0.00,,---,0.00,VWS V14.00,2013-02-10 19:36:00,
2013-02-10 14:41:00,51.7,41.1,30.19,North,360,0.0,0.0,67,0.00,,---,0.00,VWS V14.00,2013-02-10 19:41:00,
2013-02-10 14:46:00,51.6,41.0,30.18,North,360,0.0,0.0,67,0.00,,---,0.00,VWS V14.00,2013-02-10 19:46:00,
2013-02-10 14:51:00,51.5,41.3,30.18,North,360,0.0,0.0,68,0.00,,---,0.00,VWS V14.00,2013-02-10 19:51:00,
2013-02-10 14:56:00,51.3,41.5,30.18,North,360,0.0,0.0,69,0.00,,---,0.00,VWS V14.00,2013-02-10 19:56:00,
2013-02-10 15:01:00,51.2,41.4,30.18,North,360,0.0,0.0,69,0.00,,---,0.00,VWS V14.00,2013-02-10 20:01:00,
2013-02-10 15:07:00,51.2,41.4,30.18,North,360,0.0,0.0,69,0.00,,---,0.00,VWS V14.00,2013-02-10 20:07:00,
2013-02-10 15:12:00,51.2,41.4,30.18,North,360,0.0,0.0,69,0.00,,---,0.00,VWS V14.00,2013-02-10 20:12:00,
2013-02-10 15:17:00,51.3,41.5,30.17,North,360,0.0,0.0,69,0.00,,---,0.00,VWS V14.00,2013-02-10 20:17:00,
2013-02-10 15:22:00,51.3,41.9,30.17,North,360,0.0,0.0,70,0.00,,---,0.00,VWS V14.00,2013-02-10 20:22:00,
2013-02-10 15:27:00,51.3,41.9,30.17,North,360,0.0,0.0,70,0.00,,---,0.00,VWS V14.00,2013-02-10 20:27:00,
2013-02-10 15:32:00,51.2,42.1,30.17,North,360,0.0,0.0,71,0.00,,---,0.00,VWS V14.00,2013-02-10 20:32:00,
2013-02-10 15:37:00,51.1,42.8,30.17,North,360,0.0,0.0,73,0.00,,---,0.00,VWS V14.00,2013-02-10 20:37:00,
2013-02-10 15:42:00,50.9,42.9,30.17,North,360,0.0,0.0,74,0.00,,---,0.00,VWS V14.00,2013-02-10 20:42:00,
2013-02-10 15:47:00,50.7,43.4,30.16,North,360,0.0,0.0,76,0.00,,---,0.00,VWS V14.00,2013-02-10 20:47:00,
2013-02-10 15:52:00,50.4,43.8,30.17,North,360,0.0,0.0,78,0.00,,---,0.01,VWS V14.00,2013-02-10 20:52:00,
2013-02-10 15:57:00,50.1,43.8,30.16,North,360,0.0,0.0,79,0.00,,---,0.01,VWS V14.00,2013-02-10 20:57:00,
2013-02-10 16:02:00,49.7,44.1,30.16,North,360,0.0,0.0,81,0.00,,---,0.01,VWS V14.00,2013-02-10 21:02:00,
2013-02-10 16:07:00,49.4,44.1,30.16,North,360,0.0,0.0,82,0.00,,---,0.01,VWS V14.00,2013-02-10 21:07:00,
2013-02-10 16:12:00,49.0,44.4,30.17,North,360,0.0,0.0,84,0.00,,---,0.01,VWS V14.00,2013-02-10 21:12:00,
2013-02-10 16:17:00,48.7,44.7,30.16,North,360,0.0,0.0,86,0.00,,---,0.01,VWS V14.00,2013-02-10 21:17:00,
2013-02-10 16:22:00,48.3,44.6,30.16,North,360,0.0,0.0,87,0.00,,---,0.01,VWS V14.00,2013-02-10 21:22:00,
2013-02-10 16:27:00,48.0,44.3,30.16,North,360,0.0,0.0,87,0.00,,---,0.01,VWS V14.00,2013-02-10 21:27:00,
2013-02-10 16:32:00,47.8,44.4,30.16,North,360,0.0,0.0,88,0.00,,---,0.01,VWS V14.00,2013-02-10 21:32:00,
2013-02-10 16:37:00,47.6,44.2,30.16,North,360,0.0,0.0,88,0.00,,---,0.01,VWS V14.00,2013-02-10 21:37:00,
2013-02-10 16:43:00,47.4,44.0,30.17,North,360,0.0,0.0,88,0.00,,---,0.01,VWS V14.00,2013-02-10 21:43:00,
2013-02-10 16:48:00,47.2,43.8,30.16,North,360,0.0,0.0,88,0.00,,---,0.01,VWS V14.00,2013-02-10 21:48:00,
2013-02-10 16:53:00,47.1,44.0,30.17,North,360,0.0,0.0,89,0.00,,---,0.01,VWS V14.00,2013-02-10 21:53:00,
2013-02-10 16:58:00,47.0,43.9,30.17,North,360,0.0,0.0,89,0.00,,---,0.01,VWS V14.00,2013-02-10 21:58:00,
2013-02-10 17:03:00,46.9,43.8,30.17,North,360,0.0,0.0,89,0.00,,---,0.01,VWS V14.00,2013-02-10 22:03:00,
2013-02-10 17:08:00,46.9,44.1,30.18,North,360,0.0,0.0,90,0.00,,---,0.01,VWS V14.00,2013-02-10 22:08:00,
2013-02-10 17:13:00,46.6,43.5,30.17,North,360,0.0,0.0,89,0.00,,---,0.01,VWS V14.00,2013-02-10 22:13:00,
2013-02-10 17:18:00,46.3,43.2,30.17,North,360,0.0,0.0,89,0.00,,---,0.01,VWS V14.00,2013-02-10 22:18:00,
2013-02-10 17:23:00,46.1,43.0,30.17,North,360,0.0,0.0,89,0.00,,---,0.01,VWS V14.00,2013-02-10 22:23:00,
2013-02-10 17:28:00,46.0,43.2,30.18,North,360,0.0,0.0,90,0.00,,---,0.01,VWS V14.00,2013-02-10 22:28:00,
2013-02-10 17:33:00,45.8,43.0,30.18,North,360,0.0,0.0,90,0.00,,---,0.01,VWS V14.00,2013-02-10 22:33:00,
2013-02-10 17:38:00,45.7,42.9,30.18,North,360,0.0,0.0,90,0.00,,---,0.01,VWS V14.00,2013-02-10 22:38:00,
2013-02-10 17:43:00,45.5,42.7,30.19,North,360,0.0,0.0,90,0.00,,---,0.01,VWS V14.00,2013-02-10 22:43:00,
2013-02-10 17:48:00,45.5,42.7,30.21,North,360,0.0,0.0,90,0.00,,---,0.01,VWS V14.00,2013-02-10 22:48:00,
2013-02-10 17:53:00,45.3,42.5,30.20,North,360,0.0,0.0,90,0.00,,---,0.01,VWS V14.00,2013-02-10 22:53:00,
2013-02-10 17:58:00,45.2,42.5,30.20,North,360,0.0,0.0,90,0.00,,---,0.01,VWS V14.00,2013-02-10 22:58:00,
2013-02-10 18:03:00,45.2,42.5,30.21,North,360,0.0,0.0,90,0.00,,---,0.01,VWS V14.00,2013-02-10 23:03:00,
2013-02-10 18:08:00,45.2,42.2,30.22,North,360,0.0,0.0,89,0.00,,---,0.01,VWS V14.00,2013-02-10 23:08:00,
2013-02-10 18:13:00,45.2,42.2,30.21,North,360,0.0,0.0,89,0.00,,---,0.01,VWS V14.00,2013-02-10 23:13:00,
2013-02-10 18:18:00,45.1,42.1,30.21,North,360,0.0,0.0,89,0.00,,---,0.01,VWS V14.00,2013-02-10 23:18:00,
2013-02-10 18:24:00,45.1,42.1,30.21,North,360,0.0,0.0,89,0.00,,---,0.01,VWS V14.00,2013-02-10 23:24:00,
2013-02-10 18:29:00,45.1,41.8,30.23,North,360,0.0,0.0,88,0.00,,---,0.01,VWS V14.00,2013-02-10 23:29:00,
2013-02-10 18:34:00,45.1,41.8,30.22,North,360,0.0,0.0,88,0.00,,---,0.01,VWS V14.00,2013-02-10 23:34:00,
2013-02-10 18:39:00,45.1,41.8,30.22,North,360,0.0,0.0,88,0.00,,---,0.01,VWS V14.00,2013-02-10 23:39:00,
2013-02-10 18:44:00,45.1,41.8,30.22,North,360,0.0,0.0,88,0.00,,---,0.01,VWS V14.00,2013-02-10 23:44:00,
2013-02-10 18:49:00,45.1,41.5,30.23,North,360,0.0,0.0,87,0.00,,---,0.01,VWS V14.00,2013-02-10 23:49:00,
2013-02-10 18:54:00,45.1,41.5,30.23,North,360,0.0,0.0,87,0.00,,---,0.01,VWS V14.00,2013-02-10 23:54:00,
2013-02-10 18:59:00,45.2,41.6,30.23,North,360,0.0,0.0,87,0.00,,---,0.01,VWS V14.00,2013-02-10 23:59:00,
2013-02-10 19:04:00,45.3,41.4,30.25,North,360,0.0,0.0,86,0.00,,---,0.01,VWS V14.00,2013-02-11 00:04:00,
2013-02-10 19:09:00,45.3,41.4,30.25,North,360,0.0,0.0,86,0.00,,---,0.01,VWS V14.00,2013-02-11 00:09:00,
2013-02-10 19:14:00,45.3,41.4,30.26,North,360,0.0,0.0,86,0.00,,---,0.01,VWS V14.00,2013-02-11 00:14:00,
2013-02-10 19:19:00,45.4,41.5,30.26,North,360,0.0,0.0,86,0.00,,---,0.01,VWS V14.00,2013-02-11 00:19:00,
2013-02-10 19:24:00,45.4,41.5,30.26,North,360,0.0,0.0,86,0.00,,---,0.01,VWS V14.00,2013-02-11 00:24:00,
2013-02-10 19:29:00,45.4,41.5,30.26,North,360,0.0,0.0,86,0.00,,---,0.01,VWS V14.00,2013-02-11 00:29:00,
2013-02-10 19:34:00,45.4,41.5,30.26,North,360,0.0,0.0,86,0.00,,---,0.01,VWS V14.00,2013-02-11 00:34:00,
2013-02-10 19:39:00,45.4,41.5,30.26,North,360,0.0,0.0,86,0.00,,---,0.01,VWS V14.00,2013-02-11 00:39:00,
2013-02-10 19:44:00,45.4,41.5,30.25,North,360,0.0,0.0,86,0.00,,---,0.01,VWS V14.00,2013-02-11 00:44:00,
2013-02-10 19:49:00,45.5,41.6,30.25,North,360,0.0,0.0,86,0.00,,---,0.01,VWS V14.00,2013-02-11 00:49:00,
2013-02-10 19:54:00,45.5,41.3,30.25,North,360,0.0,0.0,85,0.00,,---,0.01,VWS V14.00,2013-02-11 00:54:00,
2013-02-10 19:59:00,45.5,41.3,30.26,North,360,0.0,0.0,85,0.00,,---,0.01,VWS V14.00,2013-02-11 00:59:00,
2013-02-10 20:04:00,45.5,41.3,30.25,North,360,0.0,0.0,85,0.00,,---,0.01,VWS V14.00,2013-02-11 01:04:00,
2013-02-10 20:09:00,45.5,41.3,30.26,North,360,0.0,0.0,85,0.00,,---,0.01,VWS V14.00,2013-02-11 01:09:00,
2013-02-10 20:14:00,45.5,41.3,30.26,North,360,0.0,0.0,85,0.00,,---,0.01,VWS V14.00,2013-02-11 01:14:00,
2013-02-10 20:19:00,45.6,41.4,30.26,North,360,0.0,0.0,85,0.00,,---,0.01,VWS V14.00,2013-02-11 01:19:00,
2013-02-10 20:24:00,45.6,41.4,30.25,North,360,0.0,0.0,85,0.00,,---,0.01,VWS V14.00,2013-02-11 01:24:00,
2013-02-10 20:29:00,45.7,41.5,30.25,North,360,0.0,0.0,85,0.00,,---,0.01,VWS V14.00,2013-02-11 01:29:00,
2013-02-10 20:34:00,45.8,41.5,30.25,North,360,0.0,0.0,85,0.00,,---,0.01,VWS V14.00,2013-02-11 01:34:00,
2013-02-10 20:39:00,45.9,41.7,30.25,North,360,0.0,0.0,85,0.00,,---,0.01,VWS V14.00,2013-02-11 01:39:00,
2013-02-10 20:44:00,46.0,41.8,30.25,North,360,0.0,0.0,85,0.00,,---,0.01,VWS V14.00,2013-02-11 01:44:00,
2013-02-10 20:50:00,46.1,41.8,30.25,North,360,0.0,0.0,85,0.00,,---,0.01,VWS V14.00,2013-02-11 01:50:00,
2013-02-10 20:55:00,46.2,42.0,30.24,North,360,0.0,0.0,85,0.00,,---,0.01,VWS V14.00,2013-02-11 01:55:00,
2013-02-10 21:00:00,46.2,42.0,30.24,North,360,0.0,0.0,85,0.00,,---,0.01,VWS V14.00,2013-02-11 02:00:00,
2013-02-10 21:05:00,46.3,42.0,30.24,North,360,0.0,0.0,85,0.00,,---,0.01,VWS V14.00,2013-02-11 02:05:00,
2013-02-10 21:10:00,46.3,42.0,30.24,North,360,0.0,0.0,85,0.00,,---,0.01,VWS V14.00,2013-02-11 02:10:00,
2013-02-10 21:15:00,46.4,42.1,30.24,North,360,0.0,0.0,85,0.00,,---,0.01,VWS V14.00,2013-02-11 02:15:00,
2013-02-10 21:20:00,46.4,42.1,30.23,North,360,0.0,0.0,85,0.00,,---,0.01,VWS V14.00,2013-02-11 02:20:00,
2013-02-10 21:25:00,46.4,42.1,30.22,North,360,0.0,0.0,85,0.00,,---,0.01,VWS V14.00,2013-02-11 02:25:00,
2013-02-10 21:30:00,46.5,42.2,30.22,North,360,0.0,0.0,85,0.00,,---,0.01,VWS V14.00,2013-02-11 02:30:00,
2013-02-10 21:35:00,46.5,42.2,30.21,North,360,0.0,0.0,85,0.00,,---,0.01,VWS V14.00,2013-02-11 02:35:00,
2013-02-10 21:40:00,46.5,42.2,30.20,North,360,0.0,0.0,85,0.00,,---,0.01,VWS V14.00,2013-02-11 02:40:00,
2013-02-10 21:45:00,46.5,42.2,30.20,North,360,0.0,0.0,85,0.00,,---,0.01,VWS V14.00,2013-02-11 02:45:00,
2013-02-10 21:50:00,46.5,42.2,30.20,North,360,0.0,0.0,85,0.00,,---,0.01,VWS V14.00,2013-02-11 02:50:00,
2013-02-10 21:55:00,46.5,42.2,30.20,North,360,0.0,0.0,85,0.00,,---,0.01,VWS V14.00,2013-02-11 02:55:00,
2013-02-10 22:00:00,46.5,42.2,30.20,North,360,0.0,0.0,85,0.00,,---,0.01,VWS V14.00,2013-02-11 03:00:00,
2013-02-10 22:05:00,46.5,42.2,30.19,North,360,0.0,0.0,85,0.00,,---,0.01,VWS V14.00,2013-02-11 03:05:00,
2013-02-10 22:10:00,46.5,42.2,30.19,North,360,0.0,0.0,85,0.00,,---,0.01,VWS V14.00,2013-02-11 03:10:00,
2013-02-10 22:15:00,46.5,42.2,30.19,North,360,0.0,0.0,85,0.00,,---,0.01,VWS V14.00,2013-02-11 03:15:00,
2013-02-10 22:20:00,46.5,42.2,30.19,North,360,0.0,0.0,85,0.00,,---,0.01,VWS V14.00,2013-02-11 03:20:00,
2013-02-10 22:25:00,46.5,42.2,30.18,North,360,0.0,0.0,85,0.00,,---,0.01,VWS V14.00,2013-02-11 03:25:00,
2013-02-10 22:30:00,46.5,42.2,30.18,North,360,0.0,0.0,85,0.00,,---,0.01,VWS V14.00,2013-02-11 03:30:00,
2013-02-10 22:35:00,46.5,42.2,30.18,North,360,0.0,0.0,85,0.00,,---,0.01,VWS V14.00,2013-02-11 03:35:00,
2013-02-10 22:40:00,46.5,42.2,30.18,North,360,0.0,0.0,85,0.00,,---,0.01,VWS V14.00,2013-02-11 03:40:00,
2013-02-10 22:45:00,46.5,42.2,30.18,North,360,0.0,0.0,85,0.00,,---,0.01,VWS V14.00,2013-02-11 03:45:00,
2013-02-10 22:50:00,46.5,42.2,30.18,North,360,0.0,0.0,85,0.00,,---,0.01,VWS V14.00,2013-02-11 03:50:00,
2013-02-10 22:55:00,46.5,42.2,30.17,North,360,0.0,0.0,85,0.00,,---,0.01,VWS V14.00,2013-02-11 03:55:00,
2013-02-10 23:00:00,46.5,42.2,30.17,North,360,0.0,0.0,85,0.00,,---,0.01,VWS V14.00,2013-02-11 04:00:00,
2013-02-10 23:05:00,46.5,42.2,30.17,North,360,0.0,0.0,85,0.00,,---,0.01,VWS V14.00,2013-02-11 04:05:00,
2013-02-10 23:10:00,46.5,42.2,30.17,North,360,0.0,0.0,85,0.00,,---,0.01,VWS V14.00,2013-02-11 04:10:00,
2013-02-10 23:15:00,46.5,42.2,30.17,North,360,0.0,0.0,85,0.00,,---,0.01,VWS V14.00,2013-02-11 04:15:00,
2013-02-10 23:21:00,46.5,42.2,30.17,North,360,0.0,0.0,85,0.00,,---,0.01,VWS V14.00,2013-02-11 04:21:00,
2013-02-10 23:26:00,46.5,42.2,30.16,North,360,0.0,0.0,85,0.00,,---,0.01,VWS V14.00,2013-02-11 04:26:00,
2013-02-10 23:31:00,46.5,42.2,30.16,North,360,0.0,0.0,85,0.00,,---,0.01,VWS V14.00,2013-02-11 04:31:00,
2013-02-10 23:36:00,46.5,42.2,30.17,North,360,0.0,0.0,85,0.00,,---,0.01,VWS V14.00,2013-02-11 04:36:00,
2013-02-10 23:41:00,46.5,42.2,30.17,North,360,0.0,0.0,85,0.00,,---,0.01,VWS V14.00,2013-02-11 04:41:00,
2013-02-10 23:46:00,46.5,42.2,30.16,North,360,0.0,0.0,85,0.00,,---,0.01,VWS V14.00,2013-02-11 04:46:00,
2013-02-10 23:51:00,46.5,42.2,30.16,North,360,0.0,0.0,85,0.00,,---,0.01,VWS V14.00,2013-02-11 04:51:00,
2013-02-10 23:56:00,46.5,41.9,30.16,North,360,0.0,0.0,84,0.00,,---,0.01,VWS V14.00,2013-02-11 04:56:00,